TimeMDT,TemperatureF,Dew PointF,Humidity,Sea Level PressureIn,VisibilityMPH,Wind Direction,Wind SpeedMPH,Gust SpeedMPH,PrecipitationIn,Events,Conditions,WindDirDegrees,DateUTC
12:53 AM,70.0,53.1,55,29.85,10.0,WNW,6.9,-,N/A,,Clear,290,2013-09-08 06:53:00
1:53 AM,69.1,53.1,57,29.85,10.0,WNW,8.1,-,N/A,,Clear,290,2013-09-08 07:53:00
2:53 AM,68.0,53.1,59,29.85,10.0,WNW,5.8,-,N/A,,Clear,290,2013-09-08 08:53:00
3:53 AM,66.9,53.1,61,29.85,10.0,WNW,8.1,-,N/A,,Clear,290,2013-09-08 09:53:00
4:53 AM,64.9,52.0,63,29.85,10.0,NNW,8.1,-,N/A,,Clear,330,2013-09-08 10:53:00
5:53 AM,66.0,51.1,59,29.86,10.0,NW,6.9,-,N/A,,Clear,310,2013-09-08 11:53:00
6:53 AM,64.9,51.1,61,29.86,10.0,NW,3.5,-,N/A,,Clear,320,2013-09-08 12:53:00
7:53 AM,69.1,51.1,53,29.88,10.0,North,3.5,-,N/A,,Clear,350,2013-09-08 13:53:00
8:53 AM,73.9,51.1,45,29.88,10.0,Calm,Calm,-,N/A,,Clear,0,2013-09-08 14:53:00
9:53 AM,78.1,51.1,39,29.87,10.0,SE,4.6,-,N/A,,Scattered Clouds,130,2013-09-08 15:53:00
10:53 AM,79.0,51.1,38,29.86,10.0,Variable,3.5,-,N/A,,Clear,0,2013-09-08 16:53:00
11:53 AM,82.9,51.1,33,29.84,10.0,SSE,8.1,-,N/A,,Clear,150,2013-09-08 17:53:00
12:53 PM,84.0,50.0,31,29.82,10.0,SSW,5.8,19.6,N/A,,Scattered Clouds,200,2013-09-08 18:53:00
1:53 PM,84.9,50.0,30,29.79,10.0,South,8.1,-,N/A,,Clear,190,2013-09-08 19:53:00
2:53 PM,86.0,48.9,28,29.75,10.0,South,8.1,19.6,N/A,,Clear,180,2013-09-08 20:53:00
3:53 PM,87.1,48.0,26,29.72,10.0,South,8.1,-,N/A,,Clear,170,2013-09-08 21:53:00
4:53 PM,87.1,48.0,26,29.69,10.0,Variable,5.8,-,N/A,,Scattered Clouds,0,2013-09-08 22:53:00
5:53 PM,86.0,48.0,27,29.70,10.0,SSW,10.4,-,N/A,,Clear,210,2013-09-08 23:53:00
6:46 PM,86.0,46.4,25,29.96,10.0,SSE,15.0,19.6,N/A,Thunderstorm,Thunderstorm,150,2013-09-09 00:46:00
6:53 PM,82.0,48.9,31,29.72,10.0,ESE,12.7,21.9,N/A,Thunderstorm,Thunderstorm,110,2013-09-09 00:53:00
7:04 PM,82.4,48.2,30,29.96,10.0,East,10.4,23.0,N/A,Thunderstorm,Overcast,80,2013-09-09 01:04:00
7:11 PM,82.4,48.2,30,29.96,10.0,ESE,6.9,-,N/A,,Mostly Cloudy,120,2013-09-09 01:11:00
7:53 PM,84.0,46.0,26,29.71,10.0,SSE,10.4,-,N/A,,Overcast,160,2013-09-09 01:53:00
8:53 PM,80.1,48.9,34,29.73,10.0,SE,9.2,-,N/A,,Mostly Cloudy,140,2013-09-09 02:53:00
9:53 PM,79.0,48.0,34,29.73,10.0,Calm,Calm,-,N/A,,Mostly Cloudy,0,2013-09-09 03:53:00
10:53 PM,79.0,48.0,34,29.74,10.0,Calm,Calm,-,N/A,,Mostly Cloudy,0,2013-09-09 04:53:00
11:53 PM,77.0,51.1,40,29.74,10.0,NW,3.5,-,N/A,,Scattered Clouds,320,2013-09-09 05:53:00